sensor_id;sensor_type;location;lat;lon;timestamp;pressure;altitude;pressure_sealevel;temperature;humidity
29907;BME280;16776;50.958;10.994;2023-04-01T00:02:26;96685.69;;;7.99;100.00
29907;BME280;16776;50.958;10.994;2023-04-01T00:04:54;96686.38;;;8.03;100.00
29907;BME280;16776;50.958;10.994;2023-04-01T00:07:20;96683.88;;;8.01;100.00
29907;BME280;16776;50.958;10.994;2023-04-01T00:09:47;96683.88;;;8.01;100.00
29907;BME280;16776;50.958;10.994;2023-04-01T00:12:14;96681.25;;;8.03;100.00
29907;BME280;16776;50.958;10.994;2023-04-01T00:14:41;96680.41;;;8.02;100.00
29907;BME280;16776;50.958;10.994;2023-04-01T00:17:07;96680.41;;;8.02;100.00
29907;BME280;16776;50.958;10.994;2023-04-01T00:19:34;96680.41;;;8.02;100.00
29907;BME280;16776;50.958;10.994;2023-04-01T00:22:02;96670.03;;;8.05;100.00
29907;BME280;16776;50.958;10.994;2023-04-01T00:24:29;96674.38;;;8.03;100.00
29907;BME280;16776;50.958;10.994;2023-04-01T00:26:55;96674.44;;;8.02;100.00
29907;BME280;16776;50.958;10.994;2023-04-01T00:29:22;96671.13;;;8.00;100.00
29907;BME280;16776;50.958;10.994;2023-04-01T00:31:54;96676.34;;;7.98;100.00
29907;BME280;16776;50.958;10.994;2023-04-01T00:34:21;96670.44;;;7.96;100.00
29907;BME280;16776;50.958;10.994;2023-04-01T00:36:48;96676.47;;;7.95;100.00
29907;BME280;16776;50.958;10.994;2023-04-01T00:39:16;96670.38;;;7.98;100.00
29907;BME280;16776;50.958;10.994;2023-04-01T00:41:43;96668.78;;;7.95;100.00
29907;BME280;16776;50.958;10.994;2023-04-01T00:44:18;96671.06;;;8.01;100.00
29907;BME280;16776;50.958;10.994;2023-04-01T00:46:48;96674.66;;;7.97;100.00
29907;BME280;16776;50.958;10.994;2023-04-01T00:49:21;96672.66;;;8.04;100.00
29907;BME280;16776;50.958;10.994;2023-04-01T00:51:51;96665.31;;;7.96;100.00
29907;BME280;16776;50.958;10.994;2023-04-01T00:54:21;96665.09;;;8.01;100.00
29907;BME280;16776;50.958;10.994;2023-04-01T00:56:51;96667.75;;;7.99;100.00
29907;BME280;16776;50.958;10.994;2023-04-01T00:59:26;96667.59;;;8.02;100.00
29907;BME280;16776;50.958;10.994;2023-04-01T01:01:54;96665.19;;;7.99;100.00
29907;BME280;16776;50.958;10.994;2023-04-01T01:04:26;96670.81;;;8.06;100.00
29907;BME280;16776;50.958;10.994;2023-04-01T01:06:59;96671.66;;;8.06;100.00
29907;BME280;16776;50.958;10.994;2023-04-01T01:09:39;96680.03;;;8.10;100.00
29907;BME280;16776;50.958;10.994;2023-04-01T01:12:13;96676.78;;;8.06;100.00
29907;BME280;16776;50.958;10.994;2023-04-01T01:14:49;96665.84;;;8.03;100.00
29907;BME280;16776;50.958;10.994;2023-04-01T01:17:23;96676.66;;;8.09;100.00
29907;BME280;16776;50.958;10.994;2023-04-01T01:20:20;96670.44;;;8.15;100.00
29907;BME280;16776;50.958;10.994;2023-04-01T01:29:01;96674.03;;;8.11;100.00
29907;BME280;16776;50.958;10.994;2023-04-01T01:31:37;96666.41;;;8.09;100.00
29907;BME280;16776;50.958;10.994;2023-04-01T01:34:17;96652.53;;;8.13;100.00
29907;BME280;16776;50.958;10.994;2023-04-01T01:36:50;96647.16;;;8.01;100.00
29907;BME280;16776;50.958;10.994;2023-04-01T01:39:21;96653.72;;;8.06;100.00
29907;BME280;16776;50.958;10.994;2023-04-01T01:41:52;96658.09;;;8.04;100.00
29907;BME280;16776;50.958;10.994;2023-04-01T01:44:21;96661.41;;;8.06;100.00
29907;BME280;16776;50.958;10.994;2023-04-01T01:46:48;96664.91;;;8.05;100.00
29907;BME280;16776;50.958;10.994;2023-04-01T01:49:16;96652.06;;;8.05;100.00
29907;BME280;16776;50.958;10.994;2023-04-01T01:51:44;96665.03;;;8.02;100.00
29907;BME280;16776;50.958;10.994;2023-04-01T01:54:13;96661.50;;;8.05;100.00
29907;BME280;16776;50.958;10.994;2023-04-01T01:56:41;96660.72;;;8.03;100.00
29907;BME280;16776;50.958;10.994;2023-04-01T01:59:11;96661.56;;;8.03;100.00
29907;BME280;16776;50.958;10.994;2023-04-01T02:01:41;96663.28;;;8.03;100.00
29907;BME280;16776;50.958;10.994;2023-04-01T02:04:10;96658.22;;;8.01;100.00
29907;BME280;16776;50.958;10.994;2023-04-01T02:06:41;96668.34;;;8.04;100.00
29907;BME280;16776;50.958;10.994;2023-04-01T02:09:10;96660.72;;;8.03;100.00
29907;BME280;16776;50.958;10.994;2023-04-01T02:11:42;96663.22;;;8.04;100.00
29907;BME280;16776;50.958;10.994;2023-04-01T02:14:13;96661.69;;;8.00;100.00
29907;BME280;16776;50.958;10.994;2023-04-01T02:16:45;96654.78;;;8.02;100.00
29907;BME280;16776;50.958;10.994;2023-04-01T02:19:15;96663.34;;;8.01;100.00
29907;BME280;16776;50.958;10.994;2023-04-01T02:21:49;96645.34;;;8.03;100.00
29907;BME280;16776;50.958;10.994;2023-04-01T02:24:18;96651.44;;;8.00;100.00
29907;BME280;16776;50.958;10.994;2023-04-01T02:26:50;96659.91;;;8.02;100.00
29907;BME280;16776;50.958;10.994;2023-04-01T02:29:18;96655.72;;;8.00;100.00
29907;BME280;16776;50.958;10.994;2023-04-01T02:31:46;96659.13;;;8.00;100.00
29907;BME280;16776;50.958;10.994;2023-04-01T02:34:14;96662.63;;;7.99;100.00
29907;BME280;16776;50.958;10.994;2023-04-01T02:36:41;96663.53;;;7.98;100.00
29907;BME280;16776;50.958;10.994;2023-04-01T02:39:17;96666.09;;;7.98;100.00
29907;BME280;16776;50.958;10.994;2023-04-01T02:41:45;96666.16;;;7.97;100.00
29907;BME280;16776;50.958;10.994;2023-04-01T02:44:15;96665.09;;;8.01;100.00
29907;BME280;16776;50.958;10.994;2023-04-01T02:46:42;96667.13;;;7.94;100.00
29907;BME280;16776;50.958;10.994;2023-04-01T02:49:09;96667.88;;;7.96;100.00
29907;BME280;16776;50.958;10.994;2023-04-01T02:51:36;96658.53;;;7.95;100.00
29907;BME280;16776;50.958;10.994;2023-04-01T02:54:03;96662.81;;;7.95;100.00
29907;BME280;16776;50.958;10.994;2023-04-01T02:56:30;96665.44;;;7.93;100.00
29907;BME280;16776;50.958;10.994;2023-04-01T02:58:56;96668.09;;;7.92;100.00
29907;BME280;16776;50.958;10.994;2023-04-01T03:01:24;96673.91;;;7.95;100.00
29907;BME280;16776;50.958;10.994;2023-04-01T03:03:51;96676.69;;;7.91;100.00
29907;BME280;16776;50.958;10.994;2023-04-01T03:06:17;96666.50;;;7.89;100.00
29907;BME280;16776;50.958;10.994;2023-04-01T03:08:44;96669.06;;;7.89;100.00
29907;BME280;16776;50.958;10.994;2023-04-01T03:11:11;96671.69;;;7.88;100.00
29907;BME280;16776;50.958;10.994;2023-04-01T03:13:38;96665.75;;;7.87;100.00
29907;BME280;16776;50.958;10.994;2023-04-01T03:16:05;96670.97;;;7.85;100.00
29907;BME280;16776;50.958;10.994;2023-04-01T03:18:33;96664.09;;;7.86;100.00
29907;BME280;16776;50.958;10.994;2023-04-01T03:21:15;96674.91;;;7.93;100.00
29907;BME280;16776;50.958;10.994;2023-04-01T03:23:42;96666.72;;;7.84;100.00
29907;BME280;16776;50.958;10.994;2023-04-01T03:26:33;96667.28;;;7.91;100.00
29907;BME280;16776;50.958;10.994;2023-04-01T03:29:00;96674.66;;;7.80;100.00
29907;BME280;16776;50.958;10.994;2023-04-01T03:31:26;96666.19;;;7.78;100.00
29907;BME280;16776;50.958;10.994;2023-04-01T03:33:54;96670.31;;;7.80;100.00
29907;BME280;16776;50.958;10.994;2023-04-01T03:36:21;96664.47;;;7.78;100.00
29907;BME280;16776;50.958;10.994;2023-04-01T03:38:47;96668.75;;;7.78;100.00
29907;BME280;16776;50.958;10.994;2023-04-01T03:41:16;96672.22;;;7.77;100.00
29907;BME280;16776;50.958;10.994;2023-04-01T03:43:43;96677.34;;;7.77;100.00
29907;BME280;16776;50.958;10.994;2023-04-01T03:46:10;96667.16;;;7.75;100.00
29907;BME280;16776;50.958;10.994;2023-04-01T03:48:39;96676.56;;;7.75;100.00
29907;BME280;16776;50.958;10.994;2023-04-01T03:51:08;96687.66;;;7.75;100.00
29907;BME280;16776;50.958;10.994;2023-04-01T03:53:37;96680.19;;;7.71;100.00
29907;BME280;16776;50.958;10.994;2023-04-01T03:56:04;96676.72;;;7.72;100.00
29907;BME280;16776;50.958;10.994;2023-04-01T03:58:31;96674.22;;;7.70;100.00
29907;BME280;16776;50.958;10.994;2023-04-01T04:00:57;96687.09;;;7.69;100.00
29907;BME280;16776;50.958;10.994;2023-04-01T04:03:24;96680.31;;;7.68;100.00
29907;BME280;16776;50.958;10.994;2023-04-01T04:05:51;96680.31;;;7.68;100.00
29907;BME280;16776;50.958;10.994;2023-04-01T04:08:22;96674.38;;;7.67;100.00
29907;BME280;16776;50.958;10.994;2023-04-01T04:10:54;96688.75;;;7.70;100.00
29907;BME280;16776;50.958;10.994;2023-04-01T04:13:23;96690.78;;;7.63;100.00
29907;BME280;16776;50.958;10.994;2023-04-01T04:15:50;96688.22;;;7.63;100.00
29907;BME280;16776;50.958;10.994;2023-04-01T04:18:16;96689.94;;;7.63;100.00
29907;BME280;16776;50.958;10.994;2023-04-01T04:20:44;96694.16;;;7.64;100.00
29907;BME280;16776;50.958;10.994;2023-04-01T04:23:12;96697.63;;;7.63;100.00
29907;BME280;16776;50.958;10.994;2023-04-01T04:25:40;96692.50;;;7.63;100.00
29907;BME280;16776;50.958;10.994;2023-04-01T04:28:06;96704.56;;;7.61;100.00
29907;BME280;16776;50.958;10.994;2023-04-01T04:30:33;96698.63;;;7.60;100.00
29907;BME280;16776;50.958;10.994;2023-04-01T04:33:00;96699.44;;;7.61;100.00
29907;BME280;16776;50.958;10.994;2023-04-01T04:35:26;96701.09;;;7.62;100.00
29907;BME280;16776;50.958;10.994;2023-04-01T04:37:53;96706.22;;;7.62;100.00
29907;BME280;16776;50.958;10.994;2023-04-01T04:40:19;96702.81;;;7.61;100.00
29907;BME280;16776;50.958;10.994;2023-04-01T04:42:47;96707.75;;;7.66;100.00
29907;BME280;16776;50.958;10.994;2023-04-01T04:45:14;96707.03;;;7.62;100.00
29907;BME280;16776;50.958;10.994;2023-04-01T04:47:41;96698.53;;;7.62;100.00
29907;BME280;16776;50.958;10.994;2023-04-01T04:50:08;96710.44;;;7.63;100.00
29907;BME280;16776;50.958;10.994;2023-04-01T04:52:35;96713.91;;;7.62;100.00
29907;BME280;16776;50.958;10.994;2023-04-01T04:55:02;96706.22;;;7.62;100.00
29907;BME280;16776;50.958;10.994;2023-04-01T04:57:28;96708.78;;;7.62;100.00
29907;BME280;16776;50.958;10.994;2023-04-01T04:59:56;96706.91;;;7.65;100.00
29907;BME280;16776;50.958;10.994;2023-04-01T05:02:23;96714.66;;;7.64;100.00
29907;BME280;16776;50.958;10.994;2023-04-01T05:04:50;96714.59;;;7.65;100.00
29907;BME280;16776;50.958;10.994;2023-04-01T05:07:16;96720.50;;;7.67;100.00
29907;BME280;16776;50.958;10.994;2023-04-01T05:09:43;96715.44;;;7.66;100.00
29907;BME280;16776;50.958;10.994;2023-04-01T05:12:11;96711.22;;;7.65;100.00
29907;BME280;16776;50.958;10.994;2023-04-01T05:14:38;96712.03;;;7.65;100.00
29907;BME280;16776;50.958;10.994;2023-04-01T05:17:09;96705.88;;;7.69;100.00
29907;BME280;16776;50.958;10.994;2023-04-01T05:19:36;96707.75;;;7.66;100.00
29907;BME280;16776;50.958;10.994;2023-04-01T05:22:03;96711.06;;;7.68;100.00
29907;BME280;16776;50.958;10.994;2023-04-01T05:24:32;96710.03;;;7.72;100.00
29907;BME280;16776;50.958;10.994;2023-04-01T05:27:02;96710.16;;;7.69;100.00
29907;BME280;16776;50.958;10.994;2023-04-01T05:29:28;96718.75;;;7.68;100.00
29907;BME280;16776;50.958;10.994;2023-04-01T05:31:55;96708.50;;;7.68;100.00
29907;BME280;16776;50.958;10.994;2023-04-01T05:34:23;96719.50;;;7.70;100.00
29907;BME280;16776;50.958;10.994;2023-04-01T05:36:50;96710.03;;;7.72;100.00
29907;BME280;16776;50.958;10.994;2023-04-01T05:39:17;96717.44;;;7.78;100.00
29907;BME280;16776;50.958;10.994;2023-04-01T05:41:43;96722.00;;;7.90;100.00
29907;BME280;16776;50.958;10.994;2023-04-01T05:44:17;96725.59;;;8.05;100.00
29907;BME280;16776;50.958;10.994;2023-04-01T05:46:45;96716.84;;;8.09;100.00
29907;BME280;16776;50.958;10.994;2023-04-01T05:49:11;96727.78;;;8.12;100.00
29907;BME280;16776;50.958;10.994;2023-04-01T05:51:43;96716.56;;;8.15;100.00
29907;BME280;16776;50.958;10.994;2023-04-01T05:54:09;96716.69;;;8.12;100.00
29907;BME280;16776;50.958;10.994;2023-04-01T05:56:36;96719.34;;;8.10;100.00
29907;BME280;16776;50.958;10.994;2023-04-01T05:59:03;96720.34;;;8.06;100.00
29907;BME280;16776;50.958;10.994;2023-04-01T06:01:32;96722.09;;;8.06;100.00
29907;BME280;16776;50.958;10.994;2023-04-01T06:03:58;96728.16;;;8.05;100.00
29907;BME280;16776;50.958;10.994;2023-04-01T06:06:26;96718.78;;;8.04;100.00
29907;BME280;16776;50.958;10.994;2023-04-01T06:08:56;96728.97;;;8.05;100.00
29907;BME280;16776;50.958;10.994;2023-04-01T06:11:29;96728.06;;;8.06;100.00
29907;BME280;16776;50.958;10.994;2023-04-01T06:14:11;96727.97;;;8.08;100.00
29907;BME280;16776;50.958;10.994;2023-04-01T06:16:57;96727.09;;;8.09;100.00
29907;BME280;16776;50.958;10.994;2023-04-01T06:19:36;96726.97;;;8.12;100.00
29907;BME280;16776;50.958;10.994;2023-04-01T06:22:22;96727.66;;;8.15;100.00
29907;BME280;16776;50.958;10.994;2023-04-01T06:28:17;96730.09;;;8.18;100.00
29907;BME280;16776;50.958;10.994;2023-04-01T06:30:58;96722.13;;;8.24;100.00
29907;BME280;16776;50.958;10.994;2023-04-01T06:33:39;96733.03;;;8.28;100.00
29907;BME280;16776;50.958;10.994;2023-04-01T06:39:19;96730.72;;;8.41;100.00
29907;BME280;16776;50.958;10.994;2023-04-01T06:42:03;96737.16;;;8.49;100.00
29907;BME280;16776;50.958;10.994;2023-04-01T06:44:39;96734.22;;;8.57;100.00
29907;BME280;16776;50.958;10.994;2023-04-01T06:47:23;96728.31;;;8.72;100.00
29907;BME280;16776;50.958;10.994;2023-04-01T06:49:58;96731.09;;;8.85;100.00
29907;BME280;16776;50.958;10.994;2023-04-01T06:52:31;96734.47;;;9.02;100.00
29907;BME280;16776;50.958;10.994;2023-04-01T06:55:17;96736.13;;;9.21;100.00
29907;BME280;16776;50.958;10.994;2023-04-01T06:57:52;96732.81;;;9.34;100.00
29907;BME280;16776;50.958;10.994;2023-04-01T07:00:27;96734.88;;;9.45;100.00
29907;BME280;16776;50.958;10.994;2023-04-01T07:03:05;96739.69;;;9.51;100.00
29907;BME280;16776;50.958;10.994;2023-04-01T07:05:33;96745.56;;;9.53;100.00
29907;BME280;16776;50.958;10.994;2023-04-01T07:08:04;96739.19;;;9.60;100.00
29907;BME280;16776;50.958;10.994;2023-04-01T07:10:43;96741.63;;;9.63;100.00
29907;BME280;16776;50.958;10.994;2023-04-01T07:13:22;96733.91;;;9.63;100.00
29907;BME280;16776;50.958;10.994;2023-04-01T07:15:58;96737.47;;;9.61;100.00
29907;BME280;16776;50.958;10.994;2023-04-01T07:18:34;96737.72;;;9.56;100.00
29907;BME280;16776;50.958;10.994;2023-04-01T07:21:04;96741.25;;;9.54;100.00
29907;BME280;16776;50.958;10.994;2023-04-01T07:23:39;96745.50;;;9.55;100.00
29907;BME280;16776;50.958;10.994;2023-04-01T07:26:15;96751.47;;;9.55;100.00
29907;BME280;16776;50.958;10.994;2023-04-01T07:28:53;96745.69;;;9.52;100.00
29907;BME280;16776;50.958;10.994;2023-04-01T07:31:27;96750.72;;;9.53;100.00
29907;BME280;16776;50.958;10.994;2023-04-01T07:34:02;96750.72;;;9.53;100.00
29907;BME280;16776;50.958;10.994;2023-04-01T07:36:33;96745.69;;;9.52;100.00
29907;BME280;16776;50.958;10.994;2023-04-01T07:39:12;96750.63;;;9.55;100.00
29907;BME280;16776;50.958;10.994;2023-04-01T07:41:51;96756.78;;;9.52;100.00
29907;BME280;16776;50.958;10.994;2023-04-01T07:44:25;96766.22;;;9.52;100.00
29907;BME280;16776;50.958;10.994;2023-04-01T07:47:08;96756.16;;;9.47;100.00
29907;BME280;16776;50.958;10.994;2023-04-01T07:49:53;96760.66;;;9.43;100.00
29907;BME280;16776;50.958;10.994;2023-04-01T07:52:29;96763.47;;;9.39;100.00
29907;BME280;16776;50.958;10.994;2023-04-01T07:55:03;96766.16;;;9.36;100.00
29907;BME280;16776;50.958;10.994;2023-04-01T07:57:43;96767.81;;;9.37;100.00
29907;BME280;16776;50.958;10.994;2023-04-01T08:00:17;96779.91;;;9.35;100.00
29907;BME280;16776;50.958;10.994;2023-04-01T08:02:59;96762.81;;;9.34;100.00
29907;BME280;16776;50.958;10.994;2023-04-01T08:05:39;96766.47;;;9.30;100.00
29907;BME280;16776;50.958;10.994;2023-04-01T08:08:14;96777.25;;;9.36;100.00
29907;BME280;16776;50.958;10.994;2023-04-01T08:10:48;96779.00;;;9.36;100.00
29907;BME280;16776;50.958;10.994;2023-04-01T08:13:23;96779.59;;;9.41;100.00
29907;BME280;16776;50.958;10.994;2023-04-01T08:16:01;96774.25;;;9.46;100.00
29907;BME280;16776;50.958;10.994;2023-04-01T08:18:38;96781.88;;;9.47;100.00
29907;BME280;16776;50.958;10.994;2023-04-01T08:21:10;96780.06;;;9.49;100.00
29907;BME280;16776;50.958;10.994;2023-04-01T08:23:46;96781.47;;;9.55;100.00
29907;BME280;16776;50.958;10.994;2023-04-01T08:26:18;96777.09;;;9.57;100.00
29907;BME280;16776;50.958;10.994;2023-04-01T08:28:52;96781.97;;;9.61;100.00
29907;BME280;16776;50.958;10.994;2023-04-01T08:31:25;96784.41;;;9.64;100.00
29907;BME280;16776;50.958;10.994;2023-04-01T08:33:56;96782.88;;;9.60;100.00
29907;BME280;16776;50.958;10.994;2023-04-01T08:36:26;96781.84;;;9.64;100.00
29907;BME280;16776;50.958;10.994;2023-04-01T08:38:59;96776.69;;;9.64;100.00
29907;BME280;16776;50.958;10.994;2023-04-01T08:48:00;96781.34;;;9.73;100.00
29907;BME280;16776;50.958;10.994;2023-04-01T08:50:49;96785.66;;;9.73;100.00
29907;BME280;16776;50.958;10.994;2023-04-01T08:53:34;96789.06;;;9.73;100.00
29907;BME280;16776;50.958;10.994;2023-04-01T08:56:12;96789.88;;;9.74;100.00
29907;BME280;16776;50.958;10.994;2023-04-01T08:59:02;96790.38;;;9.80;100.00
29907;BME280;16776;50.958;10.994;2023-04-01T09:01:47;96799.00;;;9.79;100.00
29907;BME280;16776;50.958;10.994;2023-04-01T09:04:26;96791.47;;;9.76;100.00
29907;BME280;16776;50.958;10.994;2023-04-01T09:07:08;96793.22;;;9.76;100.00
29907;BME280;16776;50.958;10.994;2023-04-01T09:13:14;96788.00;;;9.77;100.00
29907;BME280;16776;50.958;10.994;2023-04-01T09:16:01;96794.03;;;9.76;100.00
29907;BME280;16776;50.958;10.994;2023-04-01T09:18:48;96796.75;;;9.73;100.00
29907;BME280;16776;50.958;10.994;2023-04-01T10:18:29;96818.69;;;10.12;100.00
29907;BME280;16776;50.958;10.994;2023-04-01T10:21:25;96816.75;;;10.17;100.00
29907;BME280;16776;50.958;10.994;2023-04-01T10:24:18;96815.47;;;10.24;100.00
29907;BME280;16776;50.958;10.994;2023-04-01T10:30:18;96807.41;;;10.30;100.00
29907;BME280;16776;50.958;10.994;2023-04-01T10:39:39;96814.91;;;10.35;100.00
29907;BME280;16776;50.958;10.994;2023-04-01T10:48:31;96810.75;;;10.32;100.00
29907;BME280;16776;50.958;10.994;2023-04-01T10:51:14;96805.53;;;10.34;100.00
29907;BME280;16776;50.958;10.994;2023-04-01T10:53:49;96811.16;;;10.40;100.00
29907;BME280;16776;50.958;10.994;2023-04-01T10:56:39;96803.09;;;10.46;100.00
29907;BME280;16776;50.958;10.994;2023-04-01T11:02:51;96795.94;;;10.51;100.00
29907;BME280;16776;50.958;10.994;2023-04-01T11:11:52;96808.50;;;10.57;100.00
29907;BME280;16776;50.958;10.994;2023-04-01T11:14:52;96815.25;;;10.60;100.00
29907;BME280;16776;50.958;10.994;2023-04-01T11:18:04;96816.91;;;10.61;100.00
29907;BME280;16776;50.958;10.994;2023-04-01T11:20:58;96820.53;;;10.57;100.00
29907;BME280;16776;50.958;10.994;2023-04-01T11:23:42;96820.03;;;10.50;100.00
29907;BME280;16776;50.958;10.994;2023-04-01T11:26:21;96824.34;;;10.50;100.00
29907;BME280;16776;50.958;10.994;2023-04-01T11:29:10;96814.75;;;10.53;100.00
29907;BME280;16776;50.958;10.994;2023-04-01T11:31:53;96819.06;;;10.53;100.00
29907;BME280;16776;50.958;10.994;2023-04-01T11:34:43;96822.22;;;10.58;100.00
29907;BME280;16776;50.958;10.994;2023-04-01T11:37:31;96824.72;;;10.59;100.00
29907;BME280;16776;50.958;10.994;2023-04-01T11:40:11;96824.78;;;10.58;100.00
29907;BME280;16776;50.958;10.994;2023-04-01T11:42:46;96828.19;;;10.58;100.00
29907;BME280;16776;50.958;10.994;2023-04-01T11:45:26;96824.53;;;10.62;100.00
29907;BME280;16776;50.958;10.994;2023-04-01T11:48:13;96825.13;;;10.68;100.00
29907;BME280;16776;50.958;10.994;2023-04-01T11:51:03;96824.53;;;10.62;100.00
29907;BME280;16776;50.958;10.994;2023-04-01T11:53:43;96825.47;;;10.61;100.00
29907;BME280;16776;50.958;10.994;2023-04-01T11:56:21;96833.19;;;10.61;100.00
29907;BME280;16776;50.958;10.994;2023-04-01T11:58:58;96832.44;;;10.59;100.00
29907;BME280;16776;50.958;10.994;2023-04-01T12:01:39;96843.00;;;10.55;100.00
29907;BME280;16776;50.958;10.994;2023-04-01T12:04:36;96840.22;;;10.58;100.00
29907;BME280;16776;50.958;10.994;2023-04-01T12:07:14;96840.63;;;10.50;100.00
29907;BME280;16776;50.958;10.994;2023-04-01T12:09:48;96842.34;;;10.50;100.00
29907;BME280;16776;50.958;10.994;2023-04-01T12:12:24;96838.94;;;10.49;100.00
29907;BME280;16776;50.958;10.994;2023-04-01T12:15:03;96845.63;;;10.53;100.00
29907;BME280;16776;50.958;10.994;2023-04-01T12:17:46;96845.38;;;10.58;100.00
29907;BME280;16776;50.958;10.994;2023-04-01T12:20:38;96840.56;;;10.68;100.00
29907;BME280;16776;50.958;10.994;2023-04-01T12:23:16;96846.44;;;10.70;100.00
29907;BME280;16776;50.958;10.994;2023-04-01T12:26:00;96844.28;;;10.78;100.00
29907;BME280;16776;50.958;10.994;2023-04-01T12:28:41;96842.28;;;10.83;100.00
29907;BME280;16776;50.958;10.994;2023-04-01T12:31:20;96846.25;;;10.88;100.00
29907;BME280;16776;50.958;10.994;2023-04-01T12:34:13;96858.13;;;10.91;100.00
29907;BME280;16776;50.958;10.994;2023-04-01T12:36:55;96852.78;;;10.94;100.00
29907;BME280;16776;50.958;10.994;2023-04-01T12:39:35;96852.72;;;10.95;100.00
29907;BME280;16776;50.958;10.994;2023-04-01T12:42:14;96857.84;;;10.95;100.00
29907;BME280;16776;50.958;10.994;2023-04-01T12:45:01;96858.53;;;10.99;100.00
29907;BME280;16776;50.958;10.994;2023-04-01T12:47:50;96864.41;;;11.01;100.00
29907;BME280;16776;50.958;10.994;2023-04-01T12:50:38;96858.69;;;10.96;100.00
29907;BME280;16776;50.958;10.994;2023-04-01T12:53:23;96858.69;;;10.96;100.00
29907;BME280;16776;50.958;10.994;2023-04-01T12:55:59;96855.72;;;10.88;100.00
29907;BME280;16776;50.958;10.994;2023-04-01T13:01:45;96864.03;;;10.93;100.00
29907;BME280;16776;50.958;10.994;2023-04-01T13:04:56;96862.38;;;10.92;100.00
29907;BME280;16776;50.958;10.994;2023-04-01T13:07:45;96870.16;;;10.90;100.00
29907;BME280;16776;50.958;10.994;2023-04-01T13:10:25;96866.94;;;10.87;100.00
29907;BME280;16776;50.958;10.994;2023-04-01T13:13:13;96878.66;;;10.92;100.00
29907;BME280;16776;50.958;10.994;2023-04-01T13:15:46;96874.84;;;10.84;100.00
29907;BME280;16776;50.958;10.994;2023-04-01T13:18:25;96875.41;;;10.89;100.00
29907;BME280;16776;50.958;10.994;2023-04-01T13:21:04;96882.06;;;10.93;100.00
29907;BME280;16776;50.958;10.994;2023-04-01T13:23:47;96878.38;;;10.97;100.00
29907;BME280;16776;50.958;10.994;2023-04-01T13:26:19;96879.50;;;10.93;100.00
29907;BME280;16776;50.958;10.994;2023-04-01T13:28:52;96883.53;;;10.97;100.00
29907;BME280;16776;50.958;10.994;2023-04-01T13:31:29;96879.97;;;10.99;100.00
29907;BME280;16776;50.958;10.994;2023-04-01T13:34:06;96876.66;;;10.97;100.00
29907;BME280;16776;50.958;10.994;2023-04-01T13:36:42;96883.28;;;11.01;100.00
29907;BME280;16776;50.958;10.994;2023-04-01T13:39:24;96884.09;;;11.02;100.00
29907;BME280;16776;50.958;10.994;2023-04-01T13:42:06;96889.09;;;11.05;100.00
29907;BME280;16776;50.958;10.994;2023-04-01T13:44:41;96887.50;;;11.02;100.00
29907;BME280;16776;50.958;10.994;2023-04-01T13:47:24;96889.19;;;11.03;100.00
29907;BME280;16776;50.958;10.994;2023-04-01T13:50:25;96891.91;;;11.00;100.00
29907;BME280;16776;50.958;10.994;2023-04-01T13:53:04;96888.75;;;10.95;100.00
29907;BME280;16776;50.958;10.994;2023-04-01T13:55:54;96882.63;;;10.98;100.00
29907;BME280;16776;50.958;10.994;2023-04-01T13:58:36;96895.59;;;10.96;100.00
29907;BME280;16776;50.958;10.994;2023-04-01T14:01:09;96884.72;;;10.91;100.00
29907;BME280;16776;50.958;10.994;2023-04-01T14:06:49;96891.41;;;10.94;100.00
29907;BME280;16776;50.958;10.994;2023-04-01T14:09:35;96898.34;;;10.93;100.00
29907;BME280;16776;50.958;10.994;2023-04-01T14:12:13;96894.94;;;10.93;100.00
29907;BME280;16776;50.958;10.994;2023-04-01T14:14:53;96894.00;;;10.94;100.00
29907;BME280;16776;50.958;10.994;2023-04-01T14:17:33;96895.59;;;10.96;100.00
29907;BME280;16776;50.958;10.994;2023-04-01T14:20:17;96900.47;;;11.01;100.00
29907;BME280;16776;50.958;10.994;2023-04-01T14:23:03;96902.06;;;11.03;100.00
29907;BME280;16776;50.958;10.994;2023-04-01T14:25:52;96900.03;;;11.09;100.00
29907;BME280;16776;50.958;10.994;2023-04-01T14:28:29;96904.38;;;11.08;100.00
29907;BME280;16776;50.958;10.994;2023-04-01T14:31:23;96908.34;;;11.14;100.00
29907;BME280;16776;50.958;10.994;2023-04-01T14:34:00;96903.44;;;11.09;100.00
29907;BME280;16776;50.958;10.994;2023-04-01T14:36:39;96905.94;;;11.11;100.00
29907;BME280;16776;50.958;10.994;2023-04-01T14:39:19;96905.75;;;11.14;100.00
29907;BME280;16776;50.958;10.994;2023-04-01T14:42:00;96907.50;;;11.13;100.00
29907;BME280;16776;50.958;10.994;2023-04-01T14:44:52;96912.50;;;11.16;100.00
29907;BME280;16776;50.958;10.994;2023-04-01T14:47:47;96910.50;;;11.21;100.00
29907;BME280;16776;50.958;10.994;2023-04-01T14:50:17;96914.31;;;11.14;100.00
29907;BME280;16776;50.958;10.994;2023-04-01T14:52:55;96917.72;;;11.15;100.00
29907;BME280;16776;50.958;10.994;2023-04-01T14:55:31;96918.00;;;11.10;100.00
29907;BME280;16776;50.958;10.994;2023-04-01T14:57:59;96926.22;;;11.01;100.00
29907;BME280;16776;50.958;10.994;2023-04-01T15:00:47;96926.16;;;11.02;100.00
29907;BME280;16776;50.958;10.994;2023-04-01T15:03:18;96928.50;;;10.91;100.00
29907;BME280;16776;50.958;10.994;2023-04-01T15:05:49;96929.59;;;10.87;100.00
29907;BME280;16776;50.958;10.994;2023-04-01T15:08:21;96934.97;;;10.83;100.00
29907;BME280;16776;50.958;10.994;2023-04-01T15:10:57;96933.22;;;10.83;100.00
29907;BME280;16776;50.958;10.994;2023-04-01T15:13:56;96931.50;;;10.84;100.00
29907;BME280;16776;50.958;10.994;2023-04-01T15:16:31;96928.50;;;10.76;100.00
29907;BME280;16776;50.958;10.994;2023-04-01T15:19:07;96936.41;;;10.73;100.00
29907;BME280;16776;50.958;10.994;2023-04-01T15:21:50;96938.91;;;10.74;100.00